createdAt,value
2022-12-04T00:01:29.979Z,14.32
2022-12-04T00:04:01.223Z,15.73
2022-12-04T00:06:29.694Z,18.05
2022-12-04T00:08:57.759Z,13.38
2022-12-04T00:11:30.056Z,16.67
2022-12-04T00:14:04.815Z,12.90
2022-12-04T00:16:33.631Z,19.65
2022-12-04T00:19:00.602Z,18.48
2022-12-04T00:21:27.540Z,16.00
2022-12-04T00:23:54.842Z,15.75
2022-12-04T00:26:27.053Z,18.05
2022-12-04T00:28:55.522Z,16.05
2022-12-04T00:31:29.714Z,16.95
2022-12-04T00:33:57.366Z,18.85
2022-12-04T00:36:28.391Z,14.65
2022-12-04T00:38:55.812Z,13.25
2022-12-04T00:41:26.124Z,15.20
2022-12-04T00:43:53.651Z,19.13
2022-12-04T00:46:21.966Z,16.73
2022-12-04T00:48:49.934Z,16.27
2022-12-04T00:51:23.688Z,13.05
2022-12-04T00:53:52.836Z,13.57
2022-12-04T00:56:27.760Z,13.48
2022-12-04T00:59:01.044Z,11.82
2022-12-04T01:01:30.041Z,17.38
2022-12-04T01:03:57.339Z,15.90
2022-12-04T01:06:33.308Z,16.27
2022-12-04T01:09:04.964Z,15.80
2022-12-04T01:11:33.181Z,15.50
2022-12-04T01:14:01.010Z,11.85
2022-12-04T01:16:34.687Z,15.77
2022-12-04T01:19:03.214Z,17.13
2022-12-04T01:21:30.165Z,15.18
2022-12-04T01:23:58.922Z,16.25
2022-12-04T01:26:27.066Z,18.63
2022-12-04T01:28:54.100Z,13.95
2022-12-04T01:31:22.111Z,15.13
2022-12-04T01:33:50.727Z,17.48
2022-12-04T01:36:24.821Z,16.17
2022-12-04T01:38:52.673Z,14.35
2022-12-04T01:41:29.122Z,12.50
2022-12-04T01:44:21.171Z,14.13
2022-12-04T01:46:57.884Z,15.55
2022-12-04T01:49:48.561Z,16.45
2022-12-04T01:52:26.305Z,10.88
2022-12-04T01:55:01.098Z,16.02
2022-12-04T01:57:32.484Z,15.68
2022-12-04T02:00:11.362Z,12.63
2022-12-04T02:02:47.492Z,14.23
2022-12-04T02:05:20.886Z,16.38
2022-12-04T02:07:55.570Z,17.77
2022-12-04T02:10:54.459Z,15.23
2022-12-04T02:14:01.819Z,16.60
2022-12-04T02:17:11.629Z,11.95
2022-12-04T02:20:29.740Z,15.57
2022-12-04T02:23:47.009Z,13.68
2022-12-04T02:26:39.946Z,12.30
2022-12-04T02:29:36.405Z,14.52
2022-12-04T02:33:00.670Z,18.85
2022-12-04T02:35:47.962Z,13.73
2022-12-04T02:38:32.477Z,14.90
2022-12-04T02:41:28.739Z,15.43
2022-12-04T02:44:15.266Z,14.82
2022-12-04T02:46:53.957Z,15.05
2022-12-04T02:49:46.131Z,13.65
2022-12-04T02:52:24.219Z,11.57
2022-12-04T02:55:09.200Z,14.02
2022-12-04T02:57:53.082Z,14.93
2022-12-04T03:00:21.932Z,14.73
2022-12-04T03:03:13.636Z,16.75
2022-12-04T03:06:02.456Z,13.57
2022-12-04T03:08:45.614Z,14.32
2022-12-04T03:11:12.567Z,19.30
2022-12-04T03:13:55.008Z,12.55
2022-12-04T03:16:39.275Z,14.13
2022-12-04T03:19:21.354Z,13.30
2022-12-04T03:22:04.911Z,12.70
2022-12-04T03:24:45.371Z,11.63
2022-12-04T03:27:54.105Z,14.15
2022-12-04T03:30:23.434Z,11.27
2022-12-04T03:33:10.375Z,11.15
2022-12-04T03:36:09.851Z,11.23
2022-12-04T03:38:57.764Z,16.58
2022-12-04T03:42:01.970Z,11.90
2022-12-04T03:44:48.718Z,14.20
2022-12-04T03:47:29.961Z,11.98
2022-12-04T03:50:30.580Z,9.95
2022-12-04T03:53:30.178Z,15.27
2022-12-04T03:56:16.239Z,12.50
2022-12-04T03:58:52.760Z,13.40
2022-12-04T04:01:31.986Z,10.35
2022-12-04T04:04:04.337Z,14.73
2022-12-04T04:06:48.715Z,13.35
2022-12-04T04:09:25.026Z,11.32
2022-12-04T04:12:12.891Z,17.65
2022-12-04T04:15:19.981Z,15.43
2022-12-04T04:18:09.420Z,12.65
2022-12-04T04:21:15.204Z,12.88
2022-12-04T04:24:28.360Z,11.20
2022-12-04T04:26:58.896Z,13.88
2022-12-04T04:29:27.137Z,10.10
2022-12-04T04:32:25.530Z,11.30
2022-12-04T04:35:21.693Z,15.02
2022-12-04T04:38:28.513Z,10.98
2022-12-04T04:41:19.429Z,13.38
2022-12-04T04:44:27.721Z,15.90
2022-12-04T04:47:06.001Z,11.38
2022-12-04T04:49:38.950Z,14.02
2022-12-04T04:52:06.440Z,14.48
2022-12-04T04:54:36.824Z,12.23
2022-12-04T04:57:03.829Z,12.40
2022-12-04T04:59:30.829Z,13.32
2022-12-04T05:01:58.328Z,11.80
2022-12-04T05:04:25.273Z,14.05
2022-12-04T05:06:52.197Z,18.20
2022-12-04T05:09:19.045Z,14.45
2022-12-04T05:11:45.921Z,13.00
2022-12-04T05:14:12.778Z,10.68
2022-12-04T05:16:41.561Z,10.38
2022-12-04T05:19:27.331Z,12.70
2022-12-04T05:21:54.265Z,11.65
2022-12-04T05:24:21.097Z,13.02
2022-12-04T05:26:47.918Z,12.13
2022-12-04T05:29:14.846Z,10.95
2022-12-04T05:31:41.785Z,9.00
2022-12-04T05:34:08.710Z,15.85
2022-12-04T05:36:35.586Z,11.77
2022-12-04T05:39:02.475Z,12.00
2022-12-04T05:41:29.310Z,11.90
2022-12-04T05:43:56.159Z,13.38
2022-12-04T05:46:23.199Z,13.95
2022-12-04T05:48:50.090Z,13.05
2022-12-04T05:51:17.123Z,9.88
2022-12-04T05:53:44.052Z,12.98
2022-12-04T05:56:11.003Z,10.50
2022-12-04T05:58:38.867Z,9.45
2022-12-04T06:01:20.354Z,9.90
2022-12-04T06:03:47.615Z,9.60
2022-12-04T06:06:22.883Z,14.48
2022-12-04T06:08:57.711Z,10.23
2022-12-04T06:11:33.663Z,8.50
2022-12-04T06:14:04.502Z,12.95
2022-12-04T06:16:39.199Z,9.05
2022-12-04T06:19:18.379Z,10.43
2022-12-04T06:21:49.303Z,11.63
2022-12-04T06:24:24.205Z,12.90
2022-12-04T06:27:26.337Z,11.98
2022-12-04T06:29:45.256Z,10.55
2022-12-04T06:32:15.228Z,11.55
2022-12-04T06:34:44.843Z,12.10
2022-12-04T06:37:11.768Z,9.05
2022-12-04T06:39:38.619Z,14.45
2022-12-04T06:42:05.563Z,11.35
2022-12-04T06:44:32.541Z,9.75
2022-12-04T06:47:01.202Z,9.75
2022-12-04T06:49:28.504Z,12.30
2022-12-04T06:51:55.341Z,9.10
2022-12-04T06:54:22.935Z,12.07
2022-12-04T06:56:50.322Z,12.75
2022-12-04T06:59:17.408Z,15.88
2022-12-04T07:01:44.337Z,12.07
2022-12-04T07:04:11.288Z,8.75
2022-12-04T07:06:39.741Z,12.43
2022-12-04T07:09:17.855Z,9.93
2022-12-04T07:11:45.944Z,11.67
2022-12-04T07:14:14.318Z,10.90
2022-12-04T07:16:42.877Z,13.70
2022-12-04T07:19:13.741Z,11.82
2022-12-04T07:21:42.232Z,17.05
2022-12-04T07:24:16.910Z,15.57
2022-12-04T07:26:44.638Z,10.82
2022-12-04T07:29:11.617Z,10.97
2022-12-04T07:31:38.970Z,13.27
2022-12-04T07:34:05.944Z,13.25
2022-12-04T07:36:33.073Z,13.10
2022-12-04T07:39:00.017Z,12.65
2022-12-04T07:41:26.880Z,14.38
2022-12-04T07:43:54.677Z,16.27
2022-12-04T07:46:27.150Z,12.25
2022-12-04T07:48:59.264Z,12.32
2022-12-04T07:51:29.554Z,13.77
2022-12-04T07:54:03.542Z,13.35
2022-12-04T07:56:31.683Z,11.45
2022-12-04T07:59:00.024Z,19.27
2022-12-04T08:01:27.319Z,13.68
2022-12-04T08:03:58.235Z,14.00
2022-12-04T08:06:28.581Z,13.57
2022-12-04T08:08:57.143Z,12.20
2022-12-04T08:11:28.542Z,13.97
2022-12-04T08:14:05.725Z,10.45
2022-12-04T08:16:33.546Z,10.75
2022-12-04T08:19:01.512Z,11.35
2022-12-04T08:21:31.649Z,12.03
2022-12-04T08:24:02.487Z,13.60
2022-12-04T08:26:33.326Z,10.60
2022-12-04T08:29:01.676Z,13.50
2022-12-04T08:31:32.909Z,10.73
2022-12-04T08:34:05.889Z,12.15
2022-12-04T08:36:34.730Z,10.87
2022-12-04T08:39:01.807Z,16.30
2022-12-04T08:41:28.992Z,12.43
2022-12-04T08:43:56.786Z,11.43
2022-12-04T08:46:27.701Z,11.98
2022-12-04T08:48:55.868Z,11.97
2022-12-04T08:51:31.375Z,9.73
2022-12-04T08:54:03.270Z,9.40
2022-12-04T08:56:32.213Z,9.83
2022-12-04T08:59:00.669Z,12.17
2022-12-04T09:03:58.762Z,9.70
2022-12-04T09:06:26.347Z,14.70
2022-12-04T09:08:57.559Z,14.80
2022-12-04T09:11:28.231Z,13.20
2022-12-04T09:13:55.920Z,10.83
2022-12-04T09:16:25.303Z,14.10
2022-12-04T09:18:52.938Z,8.10
2022-12-04T09:21:23.429Z,12.67
2022-12-04T09:23:51.331Z,9.60
2022-12-04T09:26:32.823Z,12.23
2022-12-04T09:29:04.639Z,9.70
2022-12-04T09:31:33.834Z,10.40
2022-12-04T09:34:02.421Z,9.70
2022-12-04T09:36:30.191Z,7.83
2022-12-04T09:38:58.560Z,8.30
2022-12-04T09:41:57.585Z,8.20
2022-12-04T09:44:43.491Z,10.80
2022-12-04T09:47:36.988Z,9.50
2022-12-04T09:50:39.992Z,8.37
2022-12-04T09:53:25.545Z,8.63
2022-12-04T09:56:05.541Z,8.53
2022-12-04T09:59:14.359Z,13.00
2022-12-04T10:01:56.360Z,11.03
2022-12-04T10:04:23.454Z,9.50
2022-12-04T10:07:28.639Z,11.80
2022-12-04T10:10:29.985Z,11.43
2022-12-04T10:13:15.831Z,9.10
2022-12-04T10:16:11.564Z,7.77
2022-12-04T10:19:06.361Z,9.30
2022-12-04T10:22:03.597Z,7.03
2022-12-04T10:24:41.703Z,6.70
2022-12-04T10:27:30.784Z,7.83
2022-12-04T10:30:16.617Z,7.07
2022-12-04T10:32:46.558Z,7.60
2022-12-04T10:35:28.569Z,7.63
2022-12-04T10:38:38.469Z,7.83
2022-12-04T10:41:40.418Z,7.60
2022-12-04T10:44:18.738Z,7.50
2022-12-04T10:46:46.721Z,9.10
2022-12-04T10:49:36.147Z,8.07
2022-12-04T10:52:05.007Z,12.07
2022-12-04T10:54:52.006Z,8.27
2022-12-04T10:57:19.014Z,7.80
2022-12-04T10:59:56.252Z,7.97
2022-12-04T11:02:33.816Z,7.50
2022-12-04T11:05:35.688Z,9.27
2022-12-04T11:08:07.466Z,9.30
2022-12-04T11:10:39.719Z,8.27
2022-12-04T11:13:17.618Z,9.70
2022-12-04T11:15:55.733Z,8.27
2022-12-04T11:18:31.314Z,7.97
2022-12-04T11:21:05.159Z,7.53
2022-12-04T11:23:54.560Z,8.87
2022-12-04T11:26:42.362Z,10.77
2022-12-04T11:29:17.759Z,7.73
2022-12-04T11:31:55.086Z,8.80
2022-12-04T11:34:35.843Z,8.43
2022-12-04T11:37:04.992Z,9.13
2022-12-04T11:39:41.827Z,7.33
2022-12-04T11:42:26.350Z,9.60
2022-12-04T11:45:02.167Z,9.90
2022-12-04T11:47:33.453Z,10.47
2022-12-04T11:50:29.798Z,8.07
2022-12-04T11:53:17.042Z,8.93
2022-12-04T11:56:22.439Z,9.27
2022-12-04T11:59:16.763Z,7.93
2022-12-04T12:02:09.063Z,9.97
2022-12-04T12:05:26.832Z,7.60
2022-12-04T12:08:34.347Z,9.80
2022-12-04T12:11:29.993Z,8.27
2022-12-04T12:15:02.149Z,9.33
2022-12-04T12:17:46.731Z,10.13
2022-12-04T12:20:36.758Z,8.43
2022-12-04T12:23:56.307Z,11.40
2022-12-04T12:26:55.027Z,8.93
2022-12-04T12:30:04.100Z,13.63
2022-12-04T12:33:04.575Z,7.33
2022-12-04T12:35:47.789Z,9.33
2022-12-04T12:38:32.836Z,10.53
2022-12-04T12:41:12.810Z,11.00
2022-12-04T12:43:46.997Z,8.83
2022-12-04T12:46:34.477Z,9.30
2022-12-04T12:49:25.388Z,8.17
2022-12-04T12:52:27.393Z,9.17
2022-12-04T12:55:18.335Z,9.57
2022-12-04T12:57:59.288Z,8.90
2022-12-04T13:00:30.988Z,9.33
2022-12-04T13:03:25.965Z,10.33
2022-12-04T13:06:03.513Z,15.00
2022-12-04T13:08:52.601Z,11.07
2022-12-04T13:11:26.640Z,11.80
2022-12-04T13:14:02.205Z,11.80
2022-12-04T13:16:53.925Z,10.63
2022-12-04T13:19:43.080Z,14.23
2022-12-04T13:22:46.585Z,11.90
2022-12-04T13:26:20.005Z,11.90
2022-12-04T13:29:27.857Z,13.70
2022-12-04T13:32:46.108Z,11.40
2022-12-04T13:35:58.577Z,11.37
2022-12-04T13:39:32.937Z,10.30
2022-12-04T13:42:06.229Z,15.40
2022-12-04T13:44:35.577Z,11.37
2022-12-04T13:47:08.386Z,11.40
2022-12-04T13:49:42.017Z,14.30
2022-12-04T13:52:40.763Z,13.00
2022-12-04T13:55:38.683Z,13.70
2022-12-04T13:58:11.392Z,15.67
2022-12-04T14:00:43.702Z,10.83
2022-12-04T14:03:35.834Z,16.63
2022-12-04T14:06:19.943Z,12.97
2022-12-04T14:08:47.306Z,15.93
2022-12-04T14:11:19.591Z,11.10
2022-12-04T14:13:56.917Z,12.07
2022-12-04T14:16:39.875Z,10.83
2022-12-04T14:19:08.771Z,11.47
2022-12-04T14:21:47.362Z,13.00
2022-12-04T14:24:39.237Z,12.90
2022-12-04T14:27:41.945Z,12.80
2022-12-04T14:30:39.033Z,13.20
2022-12-04T14:33:22.364Z,11.10
2022-12-04T14:36:00.796Z,14.83
2022-12-04T14:38:27.936Z,14.60
2022-12-04T14:40:58.207Z,16.40
2022-12-04T14:43:37.996Z,13.23
2022-12-04T14:46:46.595Z,12.43
2022-12-04T14:50:30.866Z,13.43
2022-12-04T14:53:35.807Z,12.33
2022-12-04T14:56:48.454Z,15.23
2022-12-04T14:59:40.515Z,13.10
2022-12-04T15:02:27.125Z,15.23
2022-12-04T15:04:54.611Z,11.53
2022-12-04T15:07:31.545Z,14.00
2022-12-04T15:10:21.397Z,13.37
2022-12-04T15:12:54.589Z,12.83
2022-12-04T15:15:29.009Z,15.20
2022-12-04T15:18:03.684Z,12.73
2022-12-04T15:20:48.601Z,16.23
2022-12-04T15:23:41.594Z,16.27
2022-12-04T15:26:24.615Z,13.50
2022-12-04T15:29:01.303Z,13.50
2022-12-04T15:31:35.128Z,17.40
2022-12-04T15:34:24.860Z,13.50
2022-12-04T15:37:07.556Z,13.73
2022-12-04T15:39:37.979Z,15.30
2022-12-04T15:42:24.344Z,15.40
2022-12-04T15:45:03.309Z,16.47
2022-12-04T15:47:58.617Z,17.20
2022-12-04T15:50:30.656Z,15.67
2022-12-04T15:53:20.076Z,20.10
2022-12-04T15:55:56.211Z,15.80
2022-12-04T15:58:40.009Z,16.27
2022-12-04T16:01:13.099Z,22.57
2022-12-04T16:03:52.309Z,20.30
2022-12-04T16:06:33.437Z,18.97
2022-12-04T16:09:23.997Z,20.63
2022-12-04T16:12:17.078Z,16.40
2022-12-04T16:14:43.992Z,16.20
2022-12-04T16:17:13.532Z,16.77
2022-12-04T16:19:42.802Z,15.30
2022-12-04T16:22:24.377Z,17.57
2022-12-04T16:24:51.641Z,16.50
2022-12-04T16:27:23.488Z,15.40
2022-12-04T16:29:52.382Z,21.57
2022-12-04T16:32:32.012Z,16.77
2022-12-04T16:35:00.652Z,16.60
2022-12-04T16:37:29.861Z,18.50
2022-12-04T16:39:58.319Z,18.50
2022-12-04T16:42:29.248Z,18.87
2022-12-04T16:44:56.698Z,15.13
2022-12-04T16:47:23.911Z,17.30
2022-12-04T16:49:53.207Z,17.80
2022-12-04T16:52:21.129Z,16.73
2022-12-04T16:54:48.241Z,17.53
2022-12-04T16:57:15.143Z,22.37
2022-12-04T16:59:44.113Z,19.97
2022-12-04T17:02:26.626Z,19.70
2022-12-04T17:04:57.560Z,17.90
2022-12-04T17:07:25.414Z,17.80
2022-12-04T17:09:52.250Z,19.33
2022-12-04T17:12:19.107Z,20.43
2022-12-04T17:14:45.981Z,17.73
2022-12-04T17:17:12.838Z,17.67
2022-12-04T17:19:39.819Z,20.47
2022-12-04T17:22:07.801Z,20.60
2022-12-04T17:24:36.766Z,19.07
2022-12-04T17:27:06.230Z,19.90
2022-12-04T17:29:33.147Z,20.50
2022-12-04T17:32:00.033Z,19.73
2022-12-04T17:34:26.959Z,20.47
2022-12-04T17:36:53.947Z,18.40
2022-12-04T17:39:20.835Z,16.17
2022-12-04T17:41:47.763Z,19.27
2022-12-04T17:44:14.630Z,21.13
2022-12-04T17:46:41.644Z,19.40
2022-12-04T17:49:08.534Z,21.50
2022-12-04T17:51:35.723Z,19.83
2022-12-04T17:54:03.563Z,19.27
2022-12-04T17:56:31.174Z,25.30
2022-12-04T17:58:58.844Z,19.40
2022-12-04T18:01:29.273Z,19.77
2022-12-04T18:04:04.371Z,19.40
2022-12-04T18:06:37.852Z,23.63
2022-12-04T18:09:08.591Z,21.40
2022-12-04T18:11:39.640Z,23.30
2022-12-04T18:14:16.136Z,22.20
2022-12-04T18:16:53.145Z,23.53
2022-12-04T18:19:25.528Z,22.50
2022-12-04T18:21:54.085Z,24.27
2022-12-04T18:24:24.904Z,19.17
2022-12-04T18:26:52.763Z,23.80
2022-12-04T18:29:24.827Z,22.40
2022-12-04T18:31:53.100Z,22.90
2022-12-04T18:34:21.904Z,23.63
2022-12-04T18:36:49.560Z,26.67
2022-12-04T18:39:22.268Z,27.43
2022-12-04T18:41:50.286Z,22.67
2022-12-04T18:44:18.291Z,23.20
2022-12-04T18:46:45.857Z,24.87
2022-12-04T18:49:13.305Z,20.77
2022-12-04T18:51:49.309Z,30.50
2022-12-04T18:54:23.336Z,24.80
2022-12-04T18:56:51.896Z,21.43
2022-12-04T18:59:26.765Z,22.07
2022-12-04T19:01:55.140Z,22.23
2022-12-04T19:04:24.873Z,21.30
2022-12-04T19:06:56.417Z,23.50
2022-12-04T19:10:02.037Z,22.50
2022-12-04T19:12:16.285Z,23.90
2022-12-04T19:14:43.144Z,23.67
2022-12-04T19:17:11.241Z,23.87
2022-12-04T19:19:38.221Z,23.13
2022-12-04T19:22:05.105Z,26.37
2022-12-04T19:24:32.484Z,24.87
2022-12-04T19:27:00.225Z,23.70
2022-12-04T19:29:30.457Z,20.33
2022-12-04T19:31:59.555Z,22.97
2022-12-04T19:34:27.086Z,22.33
2022-12-04T19:36:55.195Z,22.83
2022-12-04T19:39:22.346Z,21.10
2022-12-04T19:41:49.622Z,22.57
2022-12-04T19:44:47.221Z,24.53
2022-12-04T19:47:04.070Z,27.20
2022-12-04T19:49:31.138Z,18.03
2022-12-04T19:51:58.105Z,21.70
2022-12-04T19:54:25.867Z,23.73
2022-12-04T19:56:52.898Z,19.43
2022-12-04T19:59:20.788Z,23.47
2022-12-04T20:01:48.032Z,20.20
2022-12-04T20:04:15.506Z,21.37
2022-12-04T20:06:46.450Z,24.07
2022-12-04T20:09:21.153Z,21.20
2022-12-04T20:11:48.798Z,22.67
2022-12-04T20:14:16.007Z,27.63
2022-12-04T20:16:43.008Z,24.50
2022-12-04T20:19:17.241Z,21.10
2022-12-04T20:21:46.259Z,20.00
2022-12-04T20:24:16.520Z,21.13
2022-12-04T20:26:46.132Z,22.17
2022-12-04T20:29:18.948Z,24.03
2022-12-04T20:31:47.086Z,20.30
2022-12-04T20:34:18.704Z,16.97
2022-12-04T20:36:49.120Z,22.43
2022-12-04T20:39:19.270Z,23.20
2022-12-04T20:41:46.628Z,22.60
2022-12-04T20:44:19.177Z,23.40
2022-12-04T20:46:46.854Z,21.83
2022-12-04T20:49:22.105Z,22.57
2022-12-04T20:51:51.938Z,21.90
2022-12-04T20:54:22.709Z,21.57
2022-12-04T20:56:53.454Z,25.73
2022-12-04T20:59:23.659Z,21.93
2022-12-04T21:01:52.109Z,31.87
2022-12-04T21:04:20.434Z,21.83
2022-12-04T21:06:48.133Z,22.93
2022-12-04T21:09:21.432Z,22.43
2022-12-04T21:11:54.147Z,21.93
2022-12-04T21:14:48.326Z,23.50
2022-12-04T21:17:19.363Z,20.67
2022-12-04T21:19:50.237Z,22.20
2022-12-04T21:22:19.179Z,23.57
2022-12-04T21:24:46.115Z,25.50
2022-12-04T21:27:18.905Z,21.43
2022-12-04T21:29:48.618Z,20.83
2022-12-04T21:32:20.041Z,25.77
2022-12-04T21:34:48.135Z,25.40
2022-12-04T21:37:15.665Z,24.50
2022-12-04T21:39:43.403Z,24.10
2022-12-04T21:42:28.907Z,25.40
2022-12-04T21:44:57.271Z,25.43
2022-12-04T21:47:24.602Z,28.90
2022-12-04T21:49:51.506Z,25.10
2022-12-04T21:52:20.025Z,25.33
2022-12-04T21:54:54.002Z,22.67
2022-12-04T21:57:22.676Z,25.00
2022-12-04T21:59:52.329Z,24.77
2022-12-04T22:02:20.266Z,26.50
2022-12-04T22:04:47.533Z,26.50
2022-12-04T22:07:14.445Z,23.37
2022-12-04T22:09:41.740Z,28.07
2022-12-04T22:12:33.078Z,24.40
2022-12-04T22:14:55.498Z,25.70
2022-12-04T22:17:22.333Z,26.30
2022-12-04T22:19:49.176Z,29.63
2022-12-04T22:22:16.018Z,23.87
2022-12-04T22:24:42.877Z,25.53
2022-12-04T22:27:14.729Z,27.53
2022-12-04T22:29:50.203Z,28.40
2022-12-04T22:32:19.059Z,24.03
2022-12-04T22:34:49.098Z,27.53
2022-12-04T22:37:16.358Z,22.77
2022-12-04T22:39:43.218Z,27.70
2022-12-04T22:42:10.065Z,27.20
2022-12-04T22:44:36.962Z,27.07
2022-12-04T22:47:04.087Z,28.70
2022-12-04T22:49:30.969Z,29.23
2022-12-04T22:51:57.945Z,22.13
2022-12-04T22:54:24.791Z,23.27
2022-12-04T22:56:51.661Z,23.27
2022-12-04T22:59:18.516Z,30.70
2022-12-04T23:01:45.390Z,30.23
2022-12-04T23:04:12.271Z,27.33
2022-12-04T23:06:39.265Z,31.63
2022-12-04T23:09:15.330Z,27.53
2022-12-04T23:11:43.358Z,25.90
2022-12-04T23:14:15.291Z,25.23
2022-12-04T23:16:42.953Z,29.33
2022-12-04T23:19:15.043Z,25.20
2022-12-04T23:21:43.651Z,24.53
2022-12-04T23:24:12.111Z,31.60
2022-12-04T23:26:44.846Z,27.87
2022-12-04T23:29:44.400Z,29.13
2022-12-04T23:31:59.974Z,23.40
2022-12-04T23:34:27.274Z,26.90
2022-12-04T23:36:54.141Z,28.53
2022-12-04T23:39:21.042Z,26.90
2022-12-04T23:41:48.005Z,27.17
2022-12-04T23:44:14.866Z,29.30
2022-12-04T23:46:41.847Z,26.97
2022-12-04T23:49:09.050Z,34.13
2022-12-04T23:51:35.947Z,26.93
2022-12-04T23:54:02.840Z,24.37
2022-12-04T23:56:29.683Z,31.53
2022-12-04T23:58:58.049Z,27.17
